sensor_id;sensor_type;location;lat;lon;timestamp;temperature;humidity
12704;DHT22;6416;52.182;7.650;2022-12-18T00:01:01;-3.40;57.20
12704;DHT22;6416;52.182;7.650;2022-12-18T00:03:27;-3.40;57.20
12704;DHT22;6416;52.182;7.650;2022-12-18T00:05:52;-3.40;57.30
12704;DHT22;6416;52.182;7.650;2022-12-18T00:08:18;-3.50;57.20
12704;DHT22;6416;52.182;7.650;2022-12-18T00:10:44;-3.50;57.20
12704;DHT22;6416;52.182;7.650;2022-12-18T00:13:11;-3.50;57.30
12704;DHT22;6416;52.182;7.650;2022-12-18T00:15:38;-3.50;57.20
12704;DHT22;6416;52.182;7.650;2022-12-18T00:18:04;-3.60;57.70
12704;DHT22;6416;52.182;7.650;2022-12-18T00:20:30;-3.60;57.20
12704;DHT22;6416;52.182;7.650;2022-12-18T00:22:55;-3.60;57.10
12704;DHT22;6416;52.182;7.650;2022-12-18T00:25:21;-3.70;57.10
12704;DHT22;6416;52.182;7.650;2022-12-18T00:27:48;-3.70;57.10
12704;DHT22;6416;52.182;7.650;2022-12-18T00:30:14;-3.70;57.30
12704;DHT22;6416;52.182;7.650;2022-12-18T00:32:39;-3.70;57.30
12704;DHT22;6416;52.182;7.650;2022-12-18T00:35:06;-3.70;57.20
12704;DHT22;6416;52.182;7.650;2022-12-18T00:37:33;-3.70;57.20
12704;DHT22;6416;52.182;7.650;2022-12-18T00:39:59;-3.70;57.20
12704;DHT22;6416;52.182;7.650;2022-12-18T00:42:24;-3.70;57.10
12704;DHT22;6416;52.182;7.650;2022-12-18T00:44:50;-3.80;57.10
12704;DHT22;6416;52.182;7.650;2022-12-18T00:47:15;-3.80;57.10
12704;DHT22;6416;52.182;7.650;2022-12-18T00:49:40;-3.80;57.10
12704;DHT22;6416;52.182;7.650;2022-12-18T00:52:06;-3.80;57.10
12704;DHT22;6416;52.182;7.650;2022-12-18T00:54:31;-3.90;57.00
12704;DHT22;6416;52.182;7.650;2022-12-18T00:56:57;-3.90;57.00
12704;DHT22;6416;52.182;7.650;2022-12-18T00:59:22;-3.90;57.70
12704;DHT22;6416;52.182;7.650;2022-12-18T01:01:48;-4.00;56.90
12704;DHT22;6416;52.182;7.650;2022-12-18T01:04:13;-4.00;57.10
12704;DHT22;6416;52.182;7.650;2022-12-18T01:06:39;-4.00;57.10
12704;DHT22;6416;52.182;7.650;2022-12-18T01:09:05;-4.00;57.20
12704;DHT22;6416;52.182;7.650;2022-12-18T01:11:30;-4.00;57.20
12704;DHT22;6416;52.182;7.650;2022-12-18T01:13:59;-4.00;57.20
12704;DHT22;6416;52.182;7.650;2022-12-18T01:16:24;-4.00;57.20
12704;DHT22;6416;52.182;7.650;2022-12-18T01:18:53;-4.00;57.10
12704;DHT22;6416;52.182;7.650;2022-12-18T01:21:19;-4.00;57.10
12704;DHT22;6416;52.182;7.650;2022-12-18T01:23:45;-4.10;57.00
12704;DHT22;6416;52.182;7.650;2022-12-18T01:26:14;-4.10;57.10
12704;DHT22;6416;52.182;7.650;2022-12-18T01:28:40;-4.10;57.10
12704;DHT22;6416;52.182;7.650;2022-12-18T01:33:41;-4.20;57.10
12704;DHT22;6416;52.182;7.650;2022-12-18T01:36:07;-4.20;57.10
12704;DHT22;6416;52.182;7.650;2022-12-18T01:38:33;-4.30;57.10
12704;DHT22;6416;52.182;7.650;2022-12-18T01:40:59;-4.30;57.20
12704;DHT22;6416;52.182;7.650;2022-12-18T01:43:43;-4.20;57.30
12704;DHT22;6416;52.182;7.650;2022-12-18T01:46:09;-4.20;57.40
12704;DHT22;6416;52.182;7.650;2022-12-18T01:48:34;-4.20;57.30
12704;DHT22;6416;52.182;7.650;2022-12-18T01:51:00;-4.20;57.20
12704;DHT22;6416;52.182;7.650;2022-12-18T01:53:26;-4.20;57.20
12704;DHT22;6416;52.182;7.650;2022-12-18T01:55:55;-4.20;57.20
12704;DHT22;6416;52.182;7.650;2022-12-18T01:58:30;-4.30;57.10
12704;DHT22;6416;52.182;7.650;2022-12-18T02:00:57;-4.30;57.10
12704;DHT22;6416;52.182;7.650;2022-12-18T02:03:23;-4.30;57.10
12704;DHT22;6416;52.182;7.650;2022-12-18T02:06:05;-4.40;57.10
12704;DHT22;6416;52.182;7.650;2022-12-18T02:08:39;-4.40;57.10
12704;DHT22;6416;52.182;7.650;2022-12-18T02:13:40;-4.40;57.20
12704;DHT22;6416;52.182;7.650;2022-12-18T02:19:04;-4.40;57.30
12704;DHT22;6416;52.182;7.650;2022-12-18T02:24:29;-4.50;57.30
12704;DHT22;6416;52.182;7.650;2022-12-18T02:27:04;-4.50;57.20
12704;DHT22;6416;52.182;7.650;2022-12-18T02:29:53;-4.50;57.30
12704;DHT22;6416;52.182;7.650;2022-12-18T02:32:26;-4.50;58.00
12704;DHT22;6416;52.182;7.650;2022-12-18T02:34:55;-4.60;57.20
12704;DHT22;6416;52.182;7.650;2022-12-18T02:37:22;-4.60;57.20
12704;DHT22;6416;52.182;7.650;2022-12-18T02:39:49;-4.60;57.30
12704;DHT22;6416;52.182;7.650;2022-12-18T02:42:16;-4.60;57.30
12704;DHT22;6416;52.182;7.650;2022-12-18T02:44:43;-4.70;57.30
12704;DHT22;6416;52.182;7.650;2022-12-18T02:47:11;-4.70;57.30
12704;DHT22;6416;52.182;7.650;2022-12-18T02:50:02;-4.70;57.20
12704;DHT22;6416;52.182;7.650;2022-12-18T02:55:43;-4.70;57.30
12704;DHT22;6416;52.182;7.650;2022-12-18T02:58:26;-4.70;57.30
12704;DHT22;6416;52.182;7.650;2022-12-18T03:01:15;-4.70;57.30
12704;DHT22;6416;52.182;7.650;2022-12-18T03:03:53;-4.70;57.40
12704;DHT22;6416;52.182;7.650;2022-12-18T03:06:39;-4.70;57.30
12704;DHT22;6416;52.182;7.650;2022-12-18T03:09:18;-4.70;57.30
12704;DHT22;6416;52.182;7.650;2022-12-18T03:11:48;-4.80;57.20
12704;DHT22;6416;52.182;7.650;2022-12-18T03:14:16;-4.80;57.20
12704;DHT22;6416;52.182;7.650;2022-12-18T03:16:44;-4.80;57.20
12704;DHT22;6416;52.182;7.650;2022-12-18T03:19:19;-4.90;57.10
12704;DHT22;6416;52.182;7.650;2022-12-18T03:21:54;-4.90;57.30
12704;DHT22;6416;52.182;7.650;2022-12-18T03:24:21;-4.90;57.30
12704;DHT22;6416;52.182;7.650;2022-12-18T03:26:51;-4.90;57.30
12704;DHT22;6416;52.182;7.650;2022-12-18T03:29:21;-4.90;57.30
12704;DHT22;6416;52.182;7.650;2022-12-18T03:31:53;-4.90;57.40
12704;DHT22;6416;52.182;7.650;2022-12-18T03:34:24;-4.90;57.40
12704;DHT22;6416;52.182;7.650;2022-12-18T03:36:52;-4.90;57.40
12704;DHT22;6416;52.182;7.650;2022-12-18T03:39:17;-4.90;57.30
12704;DHT22;6416;52.182;7.650;2022-12-18T03:41:46;-5.00;57.30
12704;DHT22;6416;52.182;7.650;2022-12-18T03:44:29;-4.90;57.50
12704;DHT22;6416;52.182;7.650;2022-12-18T03:50:22;-4.90;57.50
12704;DHT22;6416;52.182;7.650;2022-12-18T03:52:57;-4.90;57.50
12704;DHT22;6416;52.182;7.650;2022-12-18T03:55:26;-5.00;57.30
12704;DHT22;6416;52.182;7.650;2022-12-18T03:57:53;-5.00;57.40
12704;DHT22;6416;52.182;7.650;2022-12-18T04:00:19;-5.00;57.50
12704;DHT22;6416;52.182;7.650;2022-12-18T04:02:50;-5.00;57.60
12704;DHT22;6416;52.182;7.650;2022-12-18T04:05:17;-5.00;57.70
12704;DHT22;6416;52.182;7.650;2022-12-18T04:07:45;-5.00;57.70
12704;DHT22;6416;52.182;7.650;2022-12-18T04:10:12;-5.00;57.60
12704;DHT22;6416;52.182;7.650;2022-12-18T04:12:38;-5.00;57.60
12704;DHT22;6416;52.182;7.650;2022-12-18T04:15:05;-5.00;57.50
12704;DHT22;6416;52.182;7.650;2022-12-18T04:17:30;-5.00;57.60
12704;DHT22;6416;52.182;7.650;2022-12-18T04:19:56;-5.00;57.50
12704;DHT22;6416;52.182;7.650;2022-12-18T04:22:21;-5.00;57.60
12704;DHT22;6416;52.182;7.650;2022-12-18T04:24:47;-5.00;57.70
12704;DHT22;6416;52.182;7.650;2022-12-18T04:27:12;-5.00;57.70
12704;DHT22;6416;52.182;7.650;2022-12-18T04:29:38;-5.00;57.80
12704;DHT22;6416;52.182;7.650;2022-12-18T04:32:03;-5.00;57.90
12704;DHT22;6416;52.182;7.650;2022-12-18T04:34:29;-5.00;58.00
12704;DHT22;6416;52.182;7.650;2022-12-18T04:36:54;-5.00;58.00
12704;DHT22;6416;52.182;7.650;2022-12-18T04:39:20;-5.00;58.00
12704;DHT22;6416;52.182;7.650;2022-12-18T04:41:45;-5.00;57.90
12704;DHT22;6416;52.182;7.650;2022-12-18T04:44:11;-4.90;58.00
12704;DHT22;6416;52.182;7.650;2022-12-18T04:46:36;-4.90;58.00
12704;DHT22;6416;52.182;7.650;2022-12-18T04:49:02;-4.90;58.10
12704;DHT22;6416;52.182;7.650;2022-12-18T04:51:27;-4.90;58.20
12704;DHT22;6416;52.182;7.650;2022-12-18T04:53:53;-4.90;58.40
12704;DHT22;6416;52.182;7.650;2022-12-18T04:56:19;-4.80;58.50
12704;DHT22;6416;52.182;7.650;2022-12-18T04:58:44;-4.70;58.60
12704;DHT22;6416;52.182;7.650;2022-12-18T05:01:11;-4.80;58.40
12704;DHT22;6416;52.182;7.650;2022-12-18T05:03:38;-4.80;58.30
12704;DHT22;6416;52.182;7.650;2022-12-18T05:06:04;-4.80;58.30
12704;DHT22;6416;52.182;7.650;2022-12-18T05:08:30;-4.80;58.30
12704;DHT22;6416;52.182;7.650;2022-12-18T05:11:07;-4.80;58.40
12704;DHT22;6416;52.182;7.650;2022-12-18T05:13:34;-4.80;58.50
12704;DHT22;6416;52.182;7.650;2022-12-18T05:15:59;-4.80;58.40
12704;DHT22;6416;52.182;7.650;2022-12-18T05:18:25;-4.80;58.50
12704;DHT22;6416;52.182;7.650;2022-12-18T05:20:51;-4.70;58.70
12704;DHT22;6416;52.182;7.650;2022-12-18T05:23:18;-4.70;58.70
12704;DHT22;6416;52.182;7.650;2022-12-18T05:25:59;-4.70;58.80
12704;DHT22;6416;52.182;7.650;2022-12-18T05:28:27;-4.70;58.90
12704;DHT22;6416;52.182;7.650;2022-12-18T05:30:55;-4.60;58.90
12704;DHT22;6416;52.182;7.650;2022-12-18T05:33:21;-4.60;58.90
12704;DHT22;6416;52.182;7.650;2022-12-18T05:35:55;-4.60;58.80
12704;DHT22;6416;52.182;7.650;2022-12-18T05:38:21;-4.50;58.90
12704;DHT22;6416;52.182;7.650;2022-12-18T05:40:48;-4.50;58.90
12704;DHT22;6416;52.182;7.650;2022-12-18T05:43:13;-4.50;59.00
12704;DHT22;6416;52.182;7.650;2022-12-18T05:45:39;-4.50;59.10
12704;DHT22;6416;52.182;7.650;2022-12-18T05:48:06;-4.40;59.20
12704;DHT22;6416;52.182;7.650;2022-12-18T05:50:34;-4.40;59.20
12704;DHT22;6416;52.182;7.650;2022-12-18T05:53:00;-4.40;59.90
12704;DHT22;6416;52.182;7.650;2022-12-18T05:55:25;-4.30;59.40
12704;DHT22;6416;52.182;7.650;2022-12-18T05:57:51;-4.30;59.40
12704;DHT22;6416;52.182;7.650;2022-12-18T06:00:16;-4.20;59.40
12704;DHT22;6416;52.182;7.650;2022-12-18T06:02:42;-4.20;59.40
12704;DHT22;6416;52.182;7.650;2022-12-18T06:05:11;-4.20;59.20
12704;DHT22;6416;52.182;7.650;2022-12-18T06:07:36;-4.20;59.30
12704;DHT22;6416;52.182;7.650;2022-12-18T06:10:02;-4.10;59.40
12704;DHT22;6416;52.182;7.650;2022-12-18T06:12:27;-4.10;59.40
12704;DHT22;6416;52.182;7.650;2022-12-18T06:14:53;-4.10;59.30
12704;DHT22;6416;52.182;7.650;2022-12-18T06:17:18;-4.10;59.20
12704;DHT22;6416;52.182;7.650;2022-12-18T06:19:44;-4.10;59.30
12704;DHT22;6416;52.182;7.650;2022-12-18T06:22:09;-4.10;59.20
12704;DHT22;6416;52.182;7.650;2022-12-18T06:24:35;-4.10;59.20
12704;DHT22;6416;52.182;7.650;2022-12-18T06:27:00;-4.10;59.30
12704;DHT22;6416;52.182;7.650;2022-12-18T06:29:26;-4.10;59.20
12704;DHT22;6416;52.182;7.650;2022-12-18T06:31:51;-4.20;59.10
12704;DHT22;6416;52.182;7.650;2022-12-18T06:34:16;-4.20;59.00
12704;DHT22;6416;52.182;7.650;2022-12-18T06:36:42;-4.20;59.00
12704;DHT22;6416;52.182;7.650;2022-12-18T06:39:07;-4.20;59.00
12704;DHT22;6416;52.182;7.650;2022-12-18T06:41:33;-4.30;59.00
12704;DHT22;6416;52.182;7.650;2022-12-18T06:43:58;-4.30;59.00
12704;DHT22;6416;52.182;7.650;2022-12-18T06:46:24;-4.30;59.10
12704;DHT22;6416;52.182;7.650;2022-12-18T06:48:50;-4.30;59.10
12704;DHT22;6416;52.182;7.650;2022-12-18T06:51:17;-4.30;59.20
12704;DHT22;6416;52.182;7.650;2022-12-18T06:53:42;-4.30;59.20
12704;DHT22;6416;52.182;7.650;2022-12-18T06:56:08;-4.30;59.20
12704;DHT22;6416;52.182;7.650;2022-12-18T06:58:33;-4.30;59.20
12704;DHT22;6416;52.182;7.650;2022-12-18T07:01:00;-4.30;59.30
12704;DHT22;6416;52.182;7.650;2022-12-18T07:03:25;-4.30;59.40
12704;DHT22;6416;52.182;7.650;2022-12-18T07:05:51;-4.30;59.40
12704;DHT22;6416;52.182;7.650;2022-12-18T07:08:16;-4.30;59.40
12704;DHT22;6416;52.182;7.650;2022-12-18T07:10:45;-4.30;59.50
12704;DHT22;6416;52.182;7.650;2022-12-18T07:13:10;-4.20;59.60
12704;DHT22;6416;52.182;7.650;2022-12-18T07:15:36;-4.30;59.50
12704;DHT22;6416;52.182;7.650;2022-12-18T07:18:01;-4.20;59.70
12704;DHT22;6416;52.182;7.650;2022-12-18T07:20:27;-4.20;60.00
12704;DHT22;6416;52.182;7.650;2022-12-18T07:22:52;-4.10;59.80
12704;DHT22;6416;52.182;7.650;2022-12-18T07:25:18;-4.10;59.80
12704;DHT22;6416;52.182;7.650;2022-12-18T07:27:43;-4.10;59.80
12704;DHT22;6416;52.182;7.650;2022-12-18T07:30:09;-4.10;59.70
12704;DHT22;6416;52.182;7.650;2022-12-18T07:32:35;-4.10;59.70
12704;DHT22;6416;52.182;7.650;2022-12-18T07:35:00;-4.10;60.20
12704;DHT22;6416;52.182;7.650;2022-12-18T07:37:26;-4.10;59.80
12704;DHT22;6416;52.182;7.650;2022-12-18T07:39:51;-4.10;59.80
12704;DHT22;6416;52.182;7.650;2022-12-18T07:42:17;-4.10;59.60
12704;DHT22;6416;52.182;7.650;2022-12-18T07:44:42;-4.10;59.60
12704;DHT22;6416;52.182;7.650;2022-12-18T07:47:08;-4.10;59.60
12704;DHT22;6416;52.182;7.650;2022-12-18T07:49:34;-4.10;59.70
12704;DHT22;6416;52.182;7.650;2022-12-18T07:51:59;-4.10;59.80
12704;DHT22;6416;52.182;7.650;2022-12-18T07:54:25;-4.10;59.90
12704;DHT22;6416;52.182;7.650;2022-12-18T07:56:51;-4.10;60.10
12704;DHT22;6416;52.182;7.650;2022-12-18T07:59:17;-4.10;60.20
12704;DHT22;6416;52.182;7.650;2022-12-18T08:01:42;-4.00;60.30
12704;DHT22;6416;52.182;7.650;2022-12-18T08:04:08;-3.90;60.50
12704;DHT22;6416;52.182;7.650;2022-12-18T08:06:34;-3.90;60.60
12704;DHT22;6416;52.182;7.650;2022-12-18T08:08:59;-3.80;60.90
12704;DHT22;6416;52.182;7.650;2022-12-18T08:11:26;-3.80;61.00
12704;DHT22;6416;52.182;7.650;2022-12-18T08:13:53;-3.70;61.20
12704;DHT22;6416;52.182;7.650;2022-12-18T08:16:19;-3.70;61.30
12704;DHT22;6416;52.182;7.650;2022-12-18T08:18:44;-3.60;61.60
12704;DHT22;6416;52.182;7.650;2022-12-18T08:21:18;-3.50;61.80
12704;DHT22;6416;52.182;7.650;2022-12-18T08:23:44;-3.40;61.90
12704;DHT22;6416;52.182;7.650;2022-12-18T08:26:13;-3.30;62.00
12704;DHT22;6416;52.182;7.650;2022-12-18T08:28:39;-3.10;62.20
12704;DHT22;6416;52.182;7.650;2022-12-18T08:31:05;-3.10;62.20
12704;DHT22;6416;52.182;7.650;2022-12-18T08:33:31;-2.90;62.40
12704;DHT22;6416;52.182;7.650;2022-12-18T08:35:58;-2.90;62.40
12704;DHT22;6416;52.182;7.650;2022-12-18T08:38:24;-2.80;62.50
12704;DHT22;6416;52.182;7.650;2022-12-18T08:40:53;-2.70;62.50
12704;DHT22;6416;52.182;7.650;2022-12-18T08:43:19;-2.60;62.70
12704;DHT22;6416;52.182;7.650;2022-12-18T08:45:44;-2.50;62.80
12704;DHT22;6416;52.182;7.650;2022-12-18T08:48:10;-2.40;63.10
12704;DHT22;6416;52.182;7.650;2022-12-18T08:50:35;-2.30;63.20
12704;DHT22;6416;52.182;7.650;2022-12-18T08:53:01;-2.10;63.30
12704;DHT22;6416;52.182;7.650;2022-12-18T08:55:26;-2.00;63.50
12704;DHT22;6416;52.182;7.650;2022-12-18T08:57:52;-1.90;63.40
12704;DHT22;6416;52.182;7.650;2022-12-18T09:00:18;-1.80;63.70
12704;DHT22;6416;52.182;7.650;2022-12-18T09:02:43;-1.60;63.90
12704;DHT22;6416;52.182;7.650;2022-12-18T09:05:08;-1.50;64.50
12704;DHT22;6416;52.182;7.650;2022-12-18T09:07:34;-1.20;65.30
12704;DHT22;6416;52.182;7.650;2022-12-18T09:10:00;-1.00;66.00
12704;DHT22;6416;52.182;7.650;2022-12-18T09:12:25;-0.70;66.70
12704;DHT22;6416;52.182;7.650;2022-12-18T09:14:50;-0.40;66.60
12704;DHT22;6416;52.182;7.650;2022-12-18T09:17:16;-0.10;66.60
12704;DHT22;6416;52.182;7.650;2022-12-18T09:19:41;0.30;67.40
12704;DHT22;6416;52.182;7.650;2022-12-18T09:22:08;0.60;67.70
12704;DHT22;6416;52.182;7.650;2022-12-18T09:24:34;1.10;68.20
12704;DHT22;6416;52.182;7.650;2022-12-18T09:26:59;1.50;68.50
12704;DHT22;6416;52.182;7.650;2022-12-18T09:29:24;2.00;68.90
12704;DHT22;6416;52.182;7.650;2022-12-18T09:31:50;2.50;69.10
12704;DHT22;6416;52.182;7.650;2022-12-18T09:34:15;3.00;69.00
12704;DHT22;6416;52.182;7.650;2022-12-18T09:36:41;3.50;68.60
12704;DHT22;6416;52.182;7.650;2022-12-18T09:39:06;4.00;68.30
12704;DHT22;6416;52.182;7.650;2022-12-18T09:41:45;4.40;67.40
12704;DHT22;6416;52.182;7.650;2022-12-18T09:44:44;4.70;65.90
12704;DHT22;6416;52.182;7.650;2022-12-18T09:47:18;5.10;64.90
12704;DHT22;6416;52.182;7.650;2022-12-18T09:49:47;5.40;65.00
12704;DHT22;6416;52.182;7.650;2022-12-18T09:52:27;5.60;64.80
12704;DHT22;6416;52.182;7.650;2022-12-18T09:55:01;6.10;62.50
12704;DHT22;6416;52.182;7.650;2022-12-18T09:57:31;6.40;64.50
12704;DHT22;6416;52.182;7.650;2022-12-18T10:00:19;6.80;64.80
12704;DHT22;6416;52.182;7.650;2022-12-18T10:02:45;7.20;64.30
12704;DHT22;6416;52.182;7.650;2022-12-18T10:05:20;7.60;64.80
12704;DHT22;6416;52.182;7.650;2022-12-18T10:08:22;8.00;63.70
12704;DHT22;6416;52.182;7.650;2022-12-18T10:10:52;8.40;62.20
12704;DHT22;6416;52.182;7.650;2022-12-18T10:13:45;8.60;61.20
12704;DHT22;6416;52.182;7.650;2022-12-18T10:16:54;8.70;58.90
12704;DHT22;6416;52.182;7.650;2022-12-18T10:27:29;8.70;58.30
12704;DHT22;6416;52.182;7.650;2022-12-18T10:29:56;8.60;58.20
12704;DHT22;6416;52.182;7.650;2022-12-18T10:32:25;8.60;56.80
12704;DHT22;6416;52.182;7.650;2022-12-18T10:34:54;8.50;56.40
12704;DHT22;6416;52.182;7.650;2022-12-18T10:37:23;8.30;56.20
12704;DHT22;6416;52.182;7.650;2022-12-18T10:40:08;8.10;56.00
12704;DHT22;6416;52.182;7.650;2022-12-18T10:42:34;7.80;55.20
12704;DHT22;6416;52.182;7.650;2022-12-18T10:45:03;7.60;55.70
12704;DHT22;6416;52.182;7.650;2022-12-18T10:47:29;7.40;55.70
12704;DHT22;6416;52.182;7.650;2022-12-18T10:49:55;7.20;55.90
12704;DHT22;6416;52.182;7.650;2022-12-18T10:52:23;7.00;55.90
12704;DHT22;6416;52.182;7.650;2022-12-18T10:54:57;6.90;55.90
12704;DHT22;6416;52.182;7.650;2022-12-18T10:57:30;6.70;55.70
12704;DHT22;6416;52.182;7.650;2022-12-18T10:59:58;6.50;56.00
12704;DHT22;6416;52.182;7.650;2022-12-18T11:02:38;6.40;56.30
12704;DHT22;6416;52.182;7.650;2022-12-18T11:05:26;6.30;56.00
12704;DHT22;6416;52.182;7.650;2022-12-18T11:07:52;6.20;55.90
12704;DHT22;6416;52.182;7.650;2022-12-18T11:10:19;6.10;56.70
12704;DHT22;6416;52.182;7.650;2022-12-18T11:12:45;6.00;56.70
12704;DHT22;6416;52.182;7.650;2022-12-18T11:15:30;5.90;56.90
12704;DHT22;6416;52.182;7.650;2022-12-18T11:17:56;5.90;56.80
12704;DHT22;6416;52.182;7.650;2022-12-18T11:20:41;5.90;57.30
12704;DHT22;6416;52.182;7.650;2022-12-18T11:23:12;5.90;57.00
12704;DHT22;6416;52.182;7.650;2022-12-18T11:25:38;5.80;57.20
12704;DHT22;6416;52.182;7.650;2022-12-18T11:31:09;5.70;57.20
12704;DHT22;6416;52.182;7.650;2022-12-18T11:33:38;5.70;56.60
12704;DHT22;6416;52.182;7.650;2022-12-18T11:36:08;5.70;57.10
12704;DHT22;6416;52.182;7.650;2022-12-18T11:38:36;5.60;57.10
12704;DHT22;6416;52.182;7.650;2022-12-18T11:41:32;5.60;57.00
12704;DHT22;6416;52.182;7.650;2022-12-18T11:44:02;5.50;56.50
12704;DHT22;6416;52.182;7.650;2022-12-18T11:46:36;5.50;57.00
12704;DHT22;6416;52.182;7.650;2022-12-18T11:49:18;5.40;56.90
12704;DHT22;6416;52.182;7.650;2022-12-18T11:54:17;5.40;57.10
12704;DHT22;6416;52.182;7.650;2022-12-18T11:57:28;5.30;57.10
12704;DHT22;6416;52.182;7.650;2022-12-18T12:00:11;5.30;56.70
12704;DHT22;6416;52.182;7.650;2022-12-18T12:08:33;5.10;56.90
12704;DHT22;6416;52.182;7.650;2022-12-18T12:13:51;5.00;57.10
12704;DHT22;6416;52.182;7.650;2022-12-18T12:16:57;4.90;57.10
12704;DHT22;6416;52.182;7.650;2022-12-18T12:19:49;4.90;57.10
12704;DHT22;6416;52.182;7.650;2022-12-18T12:22:40;4.90;57.10
12704;DHT22;6416;52.182;7.650;2022-12-18T12:25:26;4.80;57.00
12704;DHT22;6416;52.182;7.650;2022-12-18T12:28:25;4.80;57.10
12704;DHT22;6416;52.182;7.650;2022-12-18T12:31:19;4.70;57.20
12704;DHT22;6416;52.182;7.650;2022-12-18T12:37:08;4.70;57.20
12704;DHT22;6416;52.182;7.650;2022-12-18T12:39:39;4.70;57.10
12704;DHT22;6416;52.182;7.650;2022-12-18T12:42:13;4.70;57.30
12704;DHT22;6416;52.182;7.650;2022-12-18T12:45:01;4.60;57.20
12704;DHT22;6416;52.182;7.650;2022-12-18T12:47:37;4.60;57.30
12704;DHT22;6416;52.182;7.650;2022-12-18T12:50:06;4.60;57.30
12704;DHT22;6416;52.182;7.650;2022-12-18T12:52:42;4.60;57.30
12704;DHT22;6416;52.182;7.650;2022-12-18T12:55:26;4.60;57.40
12704;DHT22;6416;52.182;7.650;2022-12-18T13:01:32;4.60;57.80
12704;DHT22;6416;52.182;7.650;2022-12-18T13:04:39;4.40;57.20
12704;DHT22;6416;52.182;7.650;2022-12-18T13:07:03;4.40;57.30
12704;DHT22;6416;52.182;7.650;2022-12-18T13:09:32;4.40;57.30
12704;DHT22;6416;52.182;7.650;2022-12-18T13:12:09;4.40;57.30
12704;DHT22;6416;52.182;7.650;2022-12-18T13:14:38;4.40;57.30
12704;DHT22;6416;52.182;7.650;2022-12-18T13:22:46;4.40;57.20
12704;DHT22;6416;52.182;7.650;2022-12-18T13:25:53;4.40;57.20
12704;DHT22;6416;52.182;7.650;2022-12-18T13:28:49;4.40;57.10
12704;DHT22;6416;52.182;7.650;2022-12-18T13:31:09;4.40;57.20
12704;DHT22;6416;52.182;7.650;2022-12-18T13:36:27;4.30;57.20
12704;DHT22;6416;52.182;7.650;2022-12-18T13:41:46;4.40;57.10
12704;DHT22;6416;52.182;7.650;2022-12-18T13:44:43;4.30;57.10
12704;DHT22;6416;52.182;7.650;2022-12-18T13:47:32;4.30;57.70
12704;DHT22;6416;52.182;7.650;2022-12-18T13:49:59;4.30;57.00
12704;DHT22;6416;52.182;7.650;2022-12-18T13:52:27;4.30;57.20
12704;DHT22;6416;52.182;7.650;2022-12-18T13:54:56;4.30;57.20
12704;DHT22;6416;52.182;7.650;2022-12-18T13:57:31;4.30;57.20
12704;DHT22;6416;52.182;7.650;2022-12-18T13:59:58;4.30;56.80
12704;DHT22;6416;52.182;7.650;2022-12-18T14:02:26;4.30;57.00
12704;DHT22;6416;52.182;7.650;2022-12-18T14:04:52;4.30;57.00
12704;DHT22;6416;52.182;7.650;2022-12-18T14:07:23;4.30;57.10
12704;DHT22;6416;52.182;7.650;2022-12-18T14:09:52;4.30;57.00
12704;DHT22;6416;52.182;7.650;2022-12-18T14:12:22;4.30;57.10
12704;DHT22;6416;52.182;7.650;2022-12-18T14:14:50;4.30;57.00
12704;DHT22;6416;52.182;7.650;2022-12-18T14:17:17;4.30;57.00
12704;DHT22;6416;52.182;7.650;2022-12-18T14:19:46;4.30;56.90
12704;DHT22;6416;52.182;7.650;2022-12-18T14:22:25;4.30;57.00
12704;DHT22;6416;52.182;7.650;2022-12-18T14:25:13;4.30;56.70
12704;DHT22;6416;52.182;7.650;2022-12-18T14:27:44;4.30;56.60
12704;DHT22;6416;52.182;7.650;2022-12-18T14:30:30;4.30;56.80
12704;DHT22;6416;52.182;7.650;2022-12-18T14:33:05;4.30;56.30
12704;DHT22;6416;52.182;7.650;2022-12-18T14:35:32;4.30;56.40
12704;DHT22;6416;52.182;7.650;2022-12-18T14:40:42;4.30;56.50
12704;DHT22;6416;52.182;7.650;2022-12-18T14:43:11;4.20;56.60
12704;DHT22;6416;52.182;7.650;2022-12-18T14:45:44;4.20;56.50
12704;DHT22;6416;52.182;7.650;2022-12-18T14:48:20;4.20;56.40
12704;DHT22;6416;52.182;7.650;2022-12-18T14:50:56;4.20;56.50
12704;DHT22;6416;52.182;7.650;2022-12-18T14:53:37;4.20;56.40
12704;DHT22;6416;52.182;7.650;2022-12-18T14:58:37;4.20;56.30
12704;DHT22;6416;52.182;7.650;2022-12-18T15:01:03;4.20;56.50
12704;DHT22;6416;52.182;7.650;2022-12-18T15:03:28;4.20;56.50
12704;DHT22;6416;52.182;7.650;2022-12-18T15:05:54;4.20;56.50
12704;DHT22;6416;52.182;7.650;2022-12-18T15:08:49;4.20;56.30
12704;DHT22;6416;52.182;7.650;2022-12-18T15:13:58;4.20;55.90
12704;DHT22;6416;52.182;7.650;2022-12-18T15:16:23;4.20;56.20
12704;DHT22;6416;52.182;7.650;2022-12-18T15:18:49;4.10;56.10
12704;DHT22;6416;52.182;7.650;2022-12-18T15:21:19;4.10;56.00
12704;DHT22;6416;52.182;7.650;2022-12-18T15:23:50;4.20;56.00
12704;DHT22;6416;52.182;7.650;2022-12-18T15:26:18;4.20;55.90
12704;DHT22;6416;52.182;7.650;2022-12-18T15:36:17;4.20;55.90
12704;DHT22;6416;52.182;7.650;2022-12-18T15:38:53;4.10;55.90
12704;DHT22;6416;52.182;7.650;2022-12-18T15:41:20;4.10;55.70
12704;DHT22;6416;52.182;7.650;2022-12-18T15:43:48;4.10;55.90
12704;DHT22;6416;52.182;7.650;2022-12-18T15:46:15;4.10;55.70
12704;DHT22;6416;52.182;7.650;2022-12-18T15:48:51;4.10;55.70
12704;DHT22;6416;52.182;7.650;2022-12-18T15:51:21;4.20;55.60
12704;DHT22;6416;52.182;7.650;2022-12-18T15:53:48;4.20;55.70
12704;DHT22;6416;52.182;7.650;2022-12-18T15:56:15;4.20;55.50
12704;DHT22;6416;52.182;7.650;2022-12-18T15:58:41;4.20;55.60
12704;DHT22;6416;52.182;7.650;2022-12-18T16:01:09;4.20;55.50
12704;DHT22;6416;52.182;7.650;2022-12-18T16:03:35;4.20;55.40
12704;DHT22;6416;52.182;7.650;2022-12-18T16:06:00;4.20;55.40
12704;DHT22;6416;52.182;7.650;2022-12-18T16:08:26;4.20;55.30
12704;DHT22;6416;52.182;7.650;2022-12-18T16:10:51;4.20;55.30
12704;DHT22;6416;52.182;7.650;2022-12-18T16:13:19;4.20;55.10
12704;DHT22;6416;52.182;7.650;2022-12-18T16:15:45;4.20;55.00
12704;DHT22;6416;52.182;7.650;2022-12-18T16:18:10;4.30;55.20
12704;DHT22;6416;52.182;7.650;2022-12-18T16:20:36;4.20;54.90
12704;DHT22;6416;52.182;7.650;2022-12-18T16:23:03;4.30;55.10
12704;DHT22;6416;52.182;7.650;2022-12-18T16:25:28;4.30;54.80
12704;DHT22;6416;52.182;7.650;2022-12-18T16:27:55;4.30;55.00
12704;DHT22;6416;52.182;7.650;2022-12-18T16:30:23;4.30;54.80
12704;DHT22;6416;52.182;7.650;2022-12-18T16:32:49;4.30;55.40
12704;DHT22;6416;52.182;7.650;2022-12-18T16:35:16;4.30;54.60
12704;DHT22;6416;52.182;7.650;2022-12-18T16:37:42;4.40;54.60
12704;DHT22;6416;52.182;7.650;2022-12-18T16:40:10;4.30;54.40
12704;DHT22;6416;52.182;7.650;2022-12-18T16:42:37;4.30;54.10
12704;DHT22;6416;52.182;7.650;2022-12-18T16:45:04;4.30;54.10
12704;DHT22;6416;52.182;7.650;2022-12-18T16:47:29;4.30;54.10
12704;DHT22;6416;52.182;7.650;2022-12-18T16:49:55;4.30;54.10
12704;DHT22;6416;52.182;7.650;2022-12-18T16:52:21;4.30;53.80
12704;DHT22;6416;52.182;7.650;2022-12-18T16:54:46;4.40;53.90
12704;DHT22;6416;52.182;7.650;2022-12-18T16:57:13;4.40;53.80
12704;DHT22;6416;52.182;7.650;2022-12-18T16:59:39;4.40;53.80
12704;DHT22;6416;52.182;7.650;2022-12-18T17:02:06;4.40;53.50
12704;DHT22;6416;52.182;7.650;2022-12-18T17:04:37;4.30;53.10
12704;DHT22;6416;52.182;7.650;2022-12-18T17:07:02;4.40;53.20
12704;DHT22;6416;52.182;7.650;2022-12-18T17:09:28;4.30;53.40
12704;DHT22;6416;52.182;7.650;2022-12-18T17:11:53;4.40;53.60
12704;DHT22;6416;52.182;7.650;2022-12-18T17:14:21;4.40;53.70
12704;DHT22;6416;52.182;7.650;2022-12-18T17:16:46;4.30;53.70
12704;DHT22;6416;52.182;7.650;2022-12-18T17:19:12;4.30;53.50
12704;DHT22;6416;52.182;7.650;2022-12-18T17:21:38;4.30;53.20